createdAt,value
2022-11-06T00:00:39.654Z,10.40
2022-11-06T00:03:08.767Z,10.40
2022-11-06T00:05:58.473Z,10.40
2022-11-06T00:08:32.255Z,10.40
2022-11-06T00:11:01.257Z,10.30
2022-11-06T00:13:32.320Z,10.30
2022-11-06T00:16:04.799Z,10.40
2022-11-06T00:18:33.936Z,10.40
2022-11-06T00:21:08.126Z,10.40
2022-11-06T00:23:36.906Z,10.30
2022-11-06T00:26:08.308Z,10.30
2022-11-06T00:28:38.730Z,10.30
2022-11-06T00:31:09.658Z,10.30
2022-11-06T00:33:38.804Z,10.30
2022-11-06T00:36:09.875Z,10.30
2022-11-06T00:38:38.485Z,10.20
2022-11-06T00:41:08.926Z,10.20
2022-11-06T00:43:39.315Z,10.20
2022-11-06T00:46:09.876Z,10.30
2022-11-06T00:48:39.053Z,10.20
2022-11-06T00:51:09.825Z,10.30
2022-11-06T00:53:38.565Z,10.30
2022-11-06T00:56:08.667Z,10.30
2022-11-06T00:58:39.107Z,10.30
2022-11-06T01:01:09.916Z,10.30
2022-11-06T01:03:39.045Z,10.40
2022-11-06T01:06:09.516Z,10.30
2022-11-06T01:08:39.216Z,10.30
2022-11-06T01:11:10.278Z,10.30
2022-11-06T01:13:40.847Z,10.30
2022-11-06T01:16:11.747Z,10.40
2022-11-06T01:18:41.295Z,10.40
2022-11-06T01:21:12.325Z,10.40
2022-11-06T01:23:54.216Z,10.40
2022-11-06T01:26:37.144Z,10.40
2022-11-06T01:29:10.230Z,10.40
2022-11-06T01:31:38.826Z,10.40
2022-11-06T01:34:07.506Z,10.40
2022-11-06T01:36:36.257Z,10.40
2022-11-06T01:39:06.795Z,10.40
2022-11-06T01:41:37.517Z,10.40
2022-11-06T01:44:28.840Z,10.40
2022-11-06T01:46:57.286Z,10.50
2022-11-06T01:49:26.279Z,10.50
2022-11-06T01:51:57.575Z,10.50
2022-11-06T01:54:28.984Z,10.50
2022-11-06T01:57:00.386Z,10.50
2022-11-06T01:59:34.123Z,10.50
2022-11-06T02:02:02.998Z,10.50
2022-11-06T02:04:37.645Z,10.50
2022-11-06T02:07:06.486Z,10.40
2022-11-06T02:09:36.455Z,10.40
2022-11-06T02:12:09.416Z,10.40
2022-11-06T02:14:41.717Z,10.40
2022-11-06T02:17:17.046Z,10.30
2022-11-06T02:20:01.277Z,10.40
2022-11-06T02:23:01.797Z,10.30
2022-11-06T02:25:45.196Z,10.30
2022-11-06T02:28:22.960Z,10.30
2022-11-06T02:30:52.806Z,10.30
2022-11-06T02:33:28.604Z,10.30
2022-11-06T02:36:02.976Z,10.30
2022-11-06T02:38:37.557Z,10.30
2022-11-06T02:41:10.184Z,10.30
2022-11-06T02:43:43.794Z,10.30
2022-11-06T02:46:17.362Z,10.30
2022-11-06T02:48:50.365Z,10.30
2022-11-06T02:51:20.577Z,10.30
2022-11-06T02:53:50.115Z,10.30
2022-11-06T02:56:22.134Z,10.30
2022-11-06T02:58:54.872Z,10.30
2022-11-06T03:01:30.144Z,10.30
2022-11-06T03:04:01.774Z,10.30
2022-11-06T03:06:37.055Z,10.30
2022-11-06T03:09:10.335Z,10.30
2022-11-06T03:11:40.155Z,10.30
2022-11-06T03:14:17.058Z,10.30
2022-11-06T03:16:54.634Z,10.30
2022-11-06T03:19:29.404Z,10.30
2022-11-06T03:22:05.531Z,10.30
2022-11-06T03:24:38.841Z,10.30
2022-11-06T03:27:14.145Z,10.30
2022-11-06T03:29:47.435Z,10.30
2022-11-06T03:32:20.027Z,10.30
2022-11-06T03:34:56.592Z,10.20
2022-11-06T03:37:29.935Z,10.10
2022-11-06T03:40:02.895Z,10.10
2022-11-06T03:42:33.524Z,10.10
2022-11-06T03:45:08.593Z,10.10
2022-11-06T03:47:41.635Z,10.10
2022-11-06T03:50:14.619Z,10.10
2022-11-06T03:52:50.465Z,10.00
2022-11-06T03:55:21.594Z,10.00
2022-11-06T03:57:54.595Z,9.90
2022-11-06T04:00:27.218Z,10.00
2022-11-06T04:03:05.088Z,10.00
2022-11-06T04:05:39.495Z,10.00
2022-11-06T04:08:28.199Z,10.00
2022-11-06T04:11:19.609Z,10.00
2022-11-06T04:13:58.905Z,10.00
2022-11-06T04:16:33.370Z,10.00
2022-11-06T04:19:02.656Z,10.00
2022-11-06T04:21:47.197Z,10.10
2022-11-06T04:24:48.372Z,10.10
2022-11-06T04:27:28.077Z,10.00
2022-11-06T04:30:09.805Z,10.00
2022-11-06T04:33:03.907Z,10.00
2022-11-06T04:35:44.597Z,10.00
2022-11-06T04:38:20.195Z,10.00
2022-11-06T04:41:02.437Z,10.00
2022-11-06T04:43:38.585Z,10.00
2022-11-06T04:46:09.868Z,10.00
2022-11-06T04:48:40.635Z,10.00
2022-11-06T04:51:11.838Z,10.00
2022-11-06T04:53:42.018Z,10.00
2022-11-06T04:56:15.605Z,10.00
2022-11-06T04:58:47.616Z,10.00
2022-11-06T05:01:16.438Z,10.00
2022-11-06T05:03:46.497Z,10.00
2022-11-06T05:06:15.095Z,10.00
2022-11-06T05:08:43.606Z,10.00
2022-11-06T05:11:12.188Z,10.00
2022-11-06T05:13:40.737Z,10.00
2022-11-06T05:16:09.505Z,10.00
2022-11-06T05:18:38.166Z,10.00
2022-11-06T05:21:25.556Z,10.00
2022-11-06T05:23:54.114Z,10.00
2022-11-06T05:26:22.463Z,10.00
2022-11-06T05:28:51.073Z,10.00
2022-11-06T05:31:19.682Z,10.00
2022-11-06T05:33:48.215Z,10.10
2022-11-06T05:36:18.194Z,10.00
2022-11-06T05:38:46.811Z,10.00
2022-11-06T05:41:15.293Z,10.00
2022-11-06T05:43:44.004Z,10.00
2022-11-06T05:46:35.587Z,10.00
2022-11-06T05:49:01.142Z,10.00
2022-11-06T05:51:31.103Z,10.00
2022-11-06T05:53:59.613Z,10.00
2022-11-06T05:56:28.055Z,10.00
2022-11-06T05:58:56.534Z,10.00
2022-11-06T06:01:25.145Z,10.00
2022-11-06T06:03:53.815Z,10.10
2022-11-06T06:06:22.717Z,10.10
2022-11-06T06:08:52.773Z,10.10
2022-11-06T06:11:21.375Z,10.00
2022-11-06T06:13:49.883Z,10.00
2022-11-06T06:16:18.493Z,10.00
2022-11-06T06:18:47.018Z,10.00
2022-11-06T06:21:15.453Z,10.10
2022-11-06T06:23:44.024Z,10.10
2022-11-06T06:26:13.915Z,10.10
2022-11-06T06:28:42.463Z,10.10
2022-11-06T06:31:12.043Z,10.10
2022-11-06T06:33:40.524Z,10.00
2022-11-06T06:36:10.642Z,10.10
2022-11-06T06:38:39.313Z,10.10
2022-11-06T06:41:10.342Z,10.10
2022-11-06T06:43:40.245Z,10.00
2022-11-06T06:46:09.064Z,10.10
2022-11-06T06:48:38.682Z,10.10
2022-11-06T06:51:08.041Z,10.10
2022-11-06T06:53:36.972Z,10.10
2022-11-06T06:56:05.752Z,10.10
2022-11-06T06:58:34.973Z,10.10
2022-11-06T07:01:06.903Z,10.10
2022-11-06T07:03:35.564Z,10.10
2022-11-06T07:06:04.091Z,10.10
2022-11-06T07:08:32.875Z,10.00
2022-11-06T07:11:02.203Z,10.00
2022-11-06T07:13:35.562Z,10.10
2022-11-06T07:16:08.414Z,10.00
2022-11-06T07:18:37.872Z,10.10
2022-11-06T07:21:07.533Z,10.10
2022-11-06T07:23:36.456Z,10.10
2022-11-06T07:26:05.654Z,10.10
2022-11-06T07:28:34.974Z,10.10
2022-11-06T07:31:06.840Z,10.10
2022-11-06T07:33:36.115Z,10.10
2022-11-06T07:36:06.044Z,10.10
2022-11-06T07:38:35.926Z,10.20
2022-11-06T07:41:05.514Z,10.20
2022-11-06T07:43:34.735Z,10.20
2022-11-06T07:46:06.222Z,10.20
2022-11-06T07:48:35.093Z,10.20
2022-11-06T07:51:05.203Z,10.20
2022-11-06T07:53:34.132Z,10.20
2022-11-06T07:56:03.674Z,10.20
2022-11-06T07:58:32.424Z,10.20
2022-11-06T08:01:01.051Z,10.20
2022-11-06T08:03:31.243Z,10.20
2022-11-06T08:06:00.295Z,10.30
2022-11-06T08:08:29.754Z,10.30
2022-11-06T08:11:02.573Z,10.30
2022-11-06T08:13:31.025Z,10.30
2022-11-06T08:15:59.563Z,10.40
2022-11-06T08:18:28.073Z,10.50
2022-11-06T08:20:58.100Z,10.50
2022-11-06T08:23:26.546Z,10.50
2022-11-06T08:25:56.523Z,10.50
2022-11-06T08:28:25.446Z,10.60
2022-11-06T08:30:54.403Z,10.60
2022-11-06T08:33:23.859Z,10.60
2022-11-06T08:35:52.430Z,10.70
2022-11-06T08:38:22.323Z,10.70
2022-11-06T08:40:53.756Z,10.70
2022-11-06T08:43:26.519Z,10.80
2022-11-06T08:45:55.494Z,10.80
2022-11-06T08:48:24.084Z,10.90
2022-11-06T08:50:52.563Z,10.90
2022-11-06T08:53:22.691Z,10.80
2022-11-06T08:55:51.201Z,10.80
2022-11-06T08:58:19.754Z,10.70
2022-11-06T09:00:48.247Z,10.70
2022-11-06T09:03:18.997Z,10.80
2022-11-06T09:05:47.810Z,10.90
2022-11-06T09:08:17.003Z,10.90
2022-11-06T09:10:47.055Z,10.90
2022-11-06T09:13:16.131Z,10.80
2022-11-06T09:15:45.173Z,10.90
2022-11-06T09:18:13.893Z,10.90
2022-11-06T09:20:42.490Z,11.00
2022-11-06T09:23:11.979Z,11.00
2022-11-06T09:25:41.385Z,11.00
2022-11-06T09:28:11.826Z,11.00
2022-11-06T09:30:40.794Z,11.00
2022-11-06T09:33:13.464Z,11.10
2022-11-06T09:35:44.460Z,11.10
2022-11-06T09:38:16.033Z,11.20
2022-11-06T09:40:51.954Z,11.30
2022-11-06T09:46:40.588Z,11.60
2022-11-06T09:49:20.784Z,11.70
2022-11-06T09:51:56.975Z,11.80
2022-11-06T09:54:32.634Z,11.80
2022-11-06T09:57:06.223Z,11.80
2022-11-06T09:59:38.584Z,11.90
2022-11-06T10:02:30.663Z,12.00
2022-11-06T10:05:07.103Z,12.00
2022-11-06T10:07:38.863Z,12.10
2022-11-06T10:10:10.375Z,12.20
2022-11-06T10:13:05.085Z,12.40
2022-11-06T10:15:40.468Z,12.40
2022-11-06T10:18:17.666Z,12.50
2022-11-06T10:20:51.418Z,12.50
2022-11-06T10:23:26.431Z,12.40
2022-11-06T10:26:10.123Z,12.50
2022-11-06T10:29:06.221Z,12.70
2022-11-06T10:31:46.281Z,13.00
2022-11-06T10:34:19.295Z,13.30
2022-11-06T10:36:50.662Z,13.60
2022-11-06T10:39:23.052Z,13.60
2022-11-06T10:41:59.972Z,13.60
2022-11-06T10:44:33.203Z,13.60
2022-11-06T10:47:08.716Z,13.60
2022-11-06T10:49:43.488Z,13.60
2022-11-06T10:52:43.472Z,13.60
2022-11-06T10:55:46.944Z,13.50
2022-11-06T10:58:18.613Z,13.40
2022-11-06T11:00:47.765Z,13.20
2022-11-06T11:03:27.504Z,13.10
2022-11-06T11:05:56.604Z,13.00
2022-11-06T11:08:40.487Z,13.10
2022-11-06T11:11:21.045Z,13.00
2022-11-06T11:13:54.913Z,13.00
2022-11-06T11:16:27.583Z,13.00
2022-11-06T11:19:17.515Z,13.10
2022-11-06T11:21:57.404Z,13.10
2022-11-06T11:24:26.825Z,13.30
2022-11-06T11:27:00.327Z,13.30
2022-11-06T11:29:32.512Z,13.20
2022-11-06T11:32:03.593Z,13.20
2022-11-06T11:34:37.084Z,13.10
2022-11-06T11:37:08.321Z,13.20
2022-11-06T11:39:39.844Z,13.40
2022-11-06T11:42:26.187Z,13.70
2022-11-06T11:45:16.584Z,13.90
2022-11-06T11:47:48.404Z,13.80
2022-11-06T11:50:28.113Z,13.80
2022-11-06T11:53:04.407Z,13.80
2022-11-06T11:55:40.423Z,13.80
2022-11-06T11:58:20.767Z,13.70
2022-11-06T12:00:59.810Z,13.80
2022-11-06T12:03:33.873Z,14.00
2022-11-06T12:06:10.387Z,14.20
2022-11-06T12:08:41.115Z,14.50
2022-11-06T12:11:14.293Z,14.60
2022-11-06T12:13:42.933Z,14.80
2022-11-06T12:16:17.686Z,14.80
2022-11-06T12:18:52.345Z,14.70
2022-11-06T12:21:29.233Z,14.60
2022-11-06T12:24:02.865Z,14.60
2022-11-06T12:26:36.603Z,14.50
2022-11-06T12:29:10.132Z,14.50
2022-11-06T12:31:46.644Z,14.60
2022-11-06T12:34:22.472Z,14.70
2022-11-06T12:37:05.336Z,14.70
2022-11-06T12:39:38.955Z,14.80
2022-11-06T12:42:12.155Z,14.80
2022-11-06T12:44:40.886Z,14.70
2022-11-06T12:47:16.093Z,14.60
2022-11-06T12:50:02.716Z,14.50
2022-11-06T12:52:47.570Z,14.50
2022-11-06T12:55:22.577Z,14.50
2022-11-06T12:58:11.739Z,14.50
2022-11-06T13:00:54.252Z,14.50
2022-11-06T13:03:58.676Z,14.50
2022-11-06T13:06:40.070Z,14.60
2022-11-06T13:09:18.427Z,14.60
2022-11-06T13:11:55.828Z,14.70
2022-11-06T13:14:31.259Z,14.90
2022-11-06T13:17:07.595Z,15.10
2022-11-06T13:19:43.767Z,15.10
2022-11-06T13:22:21.043Z,14.90
2022-11-06T13:25:00.768Z,14.70
2022-11-06T13:27:35.829Z,14.50
2022-11-06T13:30:13.221Z,14.40
2022-11-06T13:32:48.524Z,14.30
2022-11-06T13:35:24.183Z,14.30
2022-11-06T13:37:55.026Z,14.20
2022-11-06T13:40:36.910Z,14.10
2022-11-06T13:43:13.742Z,14.00
2022-11-06T13:45:49.422Z,13.90
2022-11-06T13:48:35.973Z,13.90
2022-11-06T13:51:13.723Z,13.90
2022-11-06T13:53:48.243Z,13.80
2022-11-06T13:56:39.673Z,13.80
2022-11-06T13:59:40.282Z,13.80
2022-11-06T14:02:31.113Z,13.70
2022-11-06T14:05:38.150Z,13.70
2022-11-06T14:08:12.969Z,13.60
2022-11-06T14:10:54.594Z,13.60
2022-11-06T14:13:31.612Z,13.70
2022-11-06T14:16:09.952Z,13.70
2022-11-06T14:18:39.172Z,13.60
2022-11-06T14:21:52.979Z,13.60
2022-11-06T14:24:40.846Z,13.50
2022-11-06T14:27:35.062Z,13.40
2022-11-06T14:30:08.365Z,13.30
2022-11-06T14:32:49.471Z,13.30
2022-11-06T14:35:53.370Z,13.30
2022-11-06T14:38:37.894Z,13.20
2022-11-06T14:41:52.082Z,13.20
2022-11-06T14:44:24.295Z,13.00
2022-11-06T14:46:57.377Z,13.00
2022-11-06T14:49:34.946Z,13.00
2022-11-06T14:52:07.293Z,13.00
2022-11-06T14:54:40.815Z,13.00
2022-11-06T14:57:13.572Z,13.00
2022-11-06T14:59:43.353Z,13.00
2022-11-06T15:02:21.218Z,12.90
2022-11-06T15:04:54.843Z,12.80
2022-11-06T15:08:03.951Z,12.70
2022-11-06T15:10:56.689Z,12.60
2022-11-06T15:13:34.754Z,12.50
2022-11-06T15:16:14.741Z,12.30
2022-11-06T15:18:47.564Z,12.20
2022-11-06T15:21:24.906Z,12.00
2022-11-06T15:24:05.733Z,11.90
2022-11-06T15:26:39.700Z,12.00
2022-11-06T15:29:20.083Z,11.90
2022-11-06T15:31:51.867Z,12.00
2022-11-06T15:34:29.755Z,12.00
2022-11-06T15:37:06.888Z,11.90
2022-11-06T15:39:42.039Z,11.90
2022-11-06T15:42:15.533Z,11.80
2022-11-06T15:44:47.162Z,11.80
2022-11-06T15:47:27.880Z,11.80
2022-11-06T15:50:19.289Z,11.70
2022-11-06T15:52:49.881Z,11.70
2022-11-06T15:55:28.226Z,11.70
2022-11-06T15:58:08.342Z,11.60
2022-11-06T16:00:41.957Z,11.70
2022-11-06T16:03:15.540Z,11.70
2022-11-06T16:05:47.615Z,11.70
2022-11-06T16:08:20.011Z,11.70
2022-11-06T16:10:50.660Z,11.70
2022-11-06T16:13:21.985Z,11.80
2022-11-06T16:15:54.888Z,11.80
2022-11-06T16:18:29.099Z,11.80
2022-11-06T16:21:03.439Z,11.80
2022-11-06T16:23:38.984Z,11.90
2022-11-06T16:26:11.133Z,11.90
2022-11-06T16:28:46.005Z,11.90
2022-11-06T16:31:18.242Z,11.90
2022-11-06T16:33:57.086Z,12.00
2022-11-06T16:36:29.792Z,12.00
2022-11-06T16:39:48.409Z,12.00
2022-11-06T16:42:36.230Z,12.00
2022-11-06T16:45:20.171Z,12.00
2022-11-06T16:48:26.125Z,12.00
2022-11-06T16:50:57.285Z,12.00
2022-11-06T16:53:30.396Z,12.00
2022-11-06T16:56:01.457Z,12.00
2022-11-06T16:58:33.004Z,12.00
2022-11-06T17:01:04.514Z,11.90
2022-11-06T17:03:40.513Z,11.90
2022-11-06T17:06:22.390Z,12.00
2022-11-06T17:09:09.691Z,12.00
2022-11-06T17:11:39.451Z,12.00
2022-11-06T17:14:20.054Z,11.90
2022-11-06T17:16:51.719Z,12.00
2022-11-06T17:19:22.319Z,11.90
2022-11-06T17:21:52.534Z,11.90
2022-11-06T17:24:38.665Z,11.90
2022-11-06T17:27:08.412Z,11.90
2022-11-06T17:29:38.981Z,11.90
2022-11-06T17:32:08.423Z,11.90
2022-11-06T17:34:38.263Z,11.80
2022-11-06T17:37:07.786Z,11.80
2022-11-06T17:39:38.664Z,11.80
2022-11-06T17:42:08.933Z,11.90
2022-11-06T17:44:38.623Z,11.90
2022-11-06T17:47:08.585Z,11.90
2022-11-06T17:49:37.245Z,11.90
2022-11-06T17:52:06.946Z,11.80
2022-11-06T17:54:39.965Z,11.80
2022-11-06T17:57:09.632Z,11.90
2022-11-06T17:59:39.042Z,11.80
2022-11-06T18:02:08.953Z,11.80
2022-11-06T18:04:40.285Z,11.80
2022-11-06T18:07:10.127Z,11.80
2022-11-06T18:09:41.252Z,11.80
2022-11-06T18:12:12.793Z,11.80
2022-11-06T18:14:42.518Z,11.80
2022-11-06T18:17:12.541Z,11.80
2022-11-06T18:19:41.975Z,11.80
2022-11-06T18:22:11.644Z,11.80
2022-11-06T18:24:42.918Z,11.70
2022-11-06T18:27:12.047Z,11.70
2022-11-06T18:29:42.143Z,11.70
2022-11-06T18:32:11.721Z,11.70
2022-11-06T18:34:41.606Z,11.70
2022-11-06T18:37:12.164Z,11.70
2022-11-06T18:39:43.034Z,11.60
2022-11-06T18:42:14.823Z,11.60
2022-11-06T18:44:46.774Z,11.60
2022-11-06T18:47:16.232Z,11.70
2022-11-06T18:49:45.728Z,11.60
2022-11-06T18:52:37.961Z,11.60
2022-11-06T18:55:10.809Z,11.60
2022-11-06T18:57:40.042Z,11.60
2022-11-06T19:00:10.927Z,11.60
2022-11-06T19:02:41.334Z,11.60
2022-11-06T19:05:10.408Z,11.60
2022-11-06T19:07:40.443Z,11.60
2022-11-06T19:10:13.243Z,11.60
2022-11-06T19:12:42.822Z,11.60
2022-11-06T19:15:12.446Z,11.60
2022-11-06T19:17:42.102Z,11.60
2022-11-06T19:20:14.914Z,11.60
2022-11-06T19:22:44.350Z,11.60
2022-11-06T19:25:15.154Z,11.60
2022-11-06T19:27:44.453Z,11.50
2022-11-06T19:30:14.448Z,11.50
2022-11-06T19:32:43.653Z,11.50
2022-11-06T19:35:14.052Z,11.50
2022-11-06T19:37:43.281Z,11.50
2022-11-06T19:40:14.815Z,11.40
2022-11-06T19:42:44.246Z,11.50
2022-11-06T19:45:13.070Z,11.50
2022-11-06T19:47:44.776Z,11.40
2022-11-06T19:50:13.928Z,11.40
2022-11-06T19:52:47.349Z,11.40
2022-11-06T19:55:26.417Z,11.40
2022-11-06T19:57:56.346Z,11.30
2022-11-06T20:00:25.574Z,11.30
2022-11-06T20:02:54.973Z,11.40
2022-11-06T20:05:24.257Z,11.40
2022-11-06T20:07:53.217Z,11.40
2022-11-06T20:10:23.853Z,11.40
2022-11-06T20:12:53.138Z,11.40
2022-11-06T20:15:24.170Z,11.40
2022-11-06T20:17:53.629Z,11.30
2022-11-06T20:20:23.512Z,11.20
2022-11-06T20:22:52.753Z,11.10
2022-11-06T20:25:23.515Z,11.10
2022-11-06T20:27:52.916Z,11.00
2022-11-06T20:30:22.922Z,11.00
2022-11-06T20:32:52.479Z,10.90
2022-11-06T20:35:21.788Z,10.90
2022-11-06T20:37:50.978Z,10.90
2022-11-06T20:40:20.456Z,10.80
2022-11-06T20:42:51.354Z,10.70
2022-11-06T20:45:21.421Z,10.70
2022-11-06T20:47:50.549Z,10.60
2022-11-06T20:50:20.289Z,10.60
2022-11-06T20:52:50.632Z,10.60
2022-11-06T20:55:20.277Z,10.50
2022-11-06T20:57:50.817Z,10.50
2022-11-06T21:00:20.831Z,10.40
2022-11-06T21:02:49.658Z,10.40
2022-11-06T21:05:18.913Z,10.20
2022-11-06T21:07:48.060Z,10.10
2022-11-06T21:10:17.282Z,10.00
2022-11-06T21:12:46.834Z,9.90
2022-11-06T21:15:17.346Z,9.80
2022-11-06T21:17:46.215Z,9.80
2022-11-06T21:20:19.076Z,9.70
2022-11-06T21:22:50.416Z,9.80
2022-11-06T21:25:19.662Z,9.70
2022-11-06T21:27:48.924Z,9.70
2022-11-06T21:30:19.131Z,9.70
2022-11-06T21:32:48.189Z,9.70
2022-11-06T21:35:18.481Z,9.60
2022-11-06T21:37:47.460Z,9.70
2022-11-06T21:40:18.203Z,9.60
2022-11-06T21:42:46.900Z,9.60
2022-11-06T21:45:17.914Z,9.60
2022-11-06T21:47:48.312Z,9.60
2022-11-06T21:50:28.252Z,9.70
2022-11-06T21:53:15.860Z,9.60
2022-11-06T21:56:02.802Z,9.60
2022-11-06T21:58:31.554Z,9.60
2022-11-06T22:01:02.952Z,9.60
2022-11-06T22:03:33.661Z,9.60
2022-11-06T22:06:07.231Z,9.60
2022-11-06T22:08:38.194Z,9.60
2022-11-06T22:11:14.660Z,9.60
2022-11-06T22:13:43.474Z,9.60
2022-11-06T22:16:13.892Z,9.60
2022-11-06T22:18:43.858Z,9.60
2022-11-06T22:21:13.961Z,9.60
2022-11-06T22:23:43.053Z,9.60
2022-11-06T22:26:13.682Z,9.70
2022-11-06T22:28:42.489Z,9.70
2022-11-06T22:31:11.383Z,9.70
2022-11-06T22:33:40.713Z,9.60
2022-11-06T22:36:13.435Z,9.70
2022-11-06T22:38:43.653Z,9.70
2022-11-06T22:41:13.923Z,9.70
2022-11-06T22:43:44.738Z,9.70
2022-11-06T22:46:15.844Z,9.70
2022-11-06T22:48:44.863Z,9.70
2022-11-06T22:51:18.692Z,9.80
2022-11-06T22:53:47.256Z,9.80
2022-11-06T22:56:15.803Z,9.70
2022-11-06T22:58:44.472Z,9.80
2022-11-06T23:01:13.989Z,9.80
2022-11-06T23:03:42.673Z,9.80
2022-11-06T23:06:11.803Z,9.80
2022-11-06T23:08:46.551Z,9.90
2022-11-06T23:11:18.462Z,9.80
2022-11-06T23:13:47.133Z,9.80
2022-11-06T23:16:17.758Z,9.80
2022-11-06T23:18:46.652Z,9.90
2022-11-06T23:21:16.313Z,9.90
2022-11-06T23:23:46.993Z,9.90
2022-11-06T23:26:17.003Z,9.90
2022-11-06T23:28:46.462Z,10.00
2022-11-06T23:31:16.694Z,10.00
2022-11-06T23:33:45.841Z,10.00
2022-11-06T23:36:15.653Z,10.00
2022-11-06T23:38:46.090Z,10.00
2022-11-06T23:41:33.012Z,10.00
2022-11-06T23:44:02.621Z,10.00
2022-11-06T23:46:32.203Z,10.00
2022-11-06T23:49:01.473Z,10.00
2022-11-06T23:51:29.983Z,10.00
2022-11-06T23:53:59.937Z,10.00
2022-11-06T23:56:28.402Z,10.10
2022-11-06T23:58:56.893Z,10.10
